Tiempo atmosférico en la estación meteorológica de Santa Susana, Barcelona (45 m.)



Fecha
DESCASC
Temp. máxima en grados centígrados (hora)
DESCASC
Temp. mínima en grados centígrados (hora)
DESCASC
Temp. media en grados centígrados
DESCASC
Racha de viento máxima en m/sg (hora)
DESCASC
Velocidad máxima media en intervalos de 10 minutos(hora)
DESCASC
Precipitaciones diarias en mm
DESCASC
Precipitaciones de 00:00 a 06:00 en mm
DESCASC
Precipitaciones de 06:00 a 12:00 en mm
DESCASC
Precipitaciones de 12:00 a 18:00 en mm
DESCASC
Precipitaciones de 18:00 a 24:00 en mm
DESCASC

Gráficas

Temp. máximas Temp. mínimas Temp. medias Precipitaciones Rachas de viento máximas Velocidades máximas media en intervalos de 10 minutos

Datos horarios

Fecha y hora oficial Temperatura (ºC) Velocidad del viento (km/h) Dirección del viento Racha (km/h) Dirección de racha Precipitación (mm) Presión (hPa) Tendencia (hPa) Humedad (%)
2019-02-22 23:00:00 6.3 0 Calma 6 Nordeste 0 -- -- 73
2019-02-22 22:00:00 7.4 4 Nordeste 6 Nordeste 0 -- -- 70
2019-02-22 21:00:00 7 2 Nordeste 5 Nordeste 0 -- -- 74
2019-02-22 20:00:00 8.3 2 Nordeste 5 Nordeste 0 -- -- 77
2019-02-22 19:00:00 10.1 0 Calma 5 Oeste 0 -- -- 79
2019-02-22 18:00:00 12.5 0 Calma 8 Sudoeste 0 -- -- 75
2019-02-22 17:00:00 17.2 4 Sudoeste 15 Sudoeste 0 -- -- 46
2019-02-22 16:00:00 19.5 5 Sudoeste 14 Sudoeste 0 -- -- 34
2019-02-22 15:00:00 20.8 8 Sudoeste 16 Sudoeste 0 -- -- 30
2019-02-22 14:00:00 20.7 10 Sudoeste 18 Sudoeste 0 -- -- 32
2019-02-22 13:00:00 19 9 Sudoeste 14 Sur 0 -- -- 36
2019-02-22 12:00:00 17.6 2 Sudeste 18 Nordeste 0 -- -- 44
2019-02-22 11:00:00 12 0 Calma 9 Este 0 -- -- 78
2019-02-22 10:00:00 7.4 0 Calma 5 Nordeste 0 -- -- 92
2019-02-22 09:00:00 4.2 3 Nordeste 5 Este 0 -- -- 92
2019-02-22 08:00:00 2.9 0 Calma 5 Nordeste 0 -- -- 92
2019-02-22 07:00:00 2.8 3 Nordeste 5 Nordeste 0 -- -- 92
2019-02-22 06:00:00 2.9 3 Nordeste 5 Nordeste 0 -- -- 92
2019-02-22 05:00:00 3.2 4 Nordeste 6 Nordeste 0 -- -- 92
2019-02-22 04:00:00 3.4 2 Nordeste 6 Este 0 -- -- 92
2019-02-22 03:00:00 3.6 0 Calma 5 Nordeste 0 -- -- 92
2019-02-22 02:00:00 3.9 3 Nordeste 5 Nordeste 0 -- -- 92
2019-02-22 01:00:00 3.8 3 Nordeste 6 Nordeste 0 -- -- 92
2019-02-22 00:00:00 4.4 0 Calma 4 Nordeste 0 -- -- 92
2019-02-21 23:00:00 4.9 3 Nordeste 4 Nordeste 0 -- -- 92
2019-02-21 22:00:00 5.4 3 Nordeste 4 Nordeste 0 -- -- 91
2019-02-21 21:00:00 6.4 2 Nordeste 4 Nordeste 0 -- -- 90
2019-02-21 20:00:00 7.8 2 Nordeste 8 Nordeste 0 -- -- 87
2019-02-21 19:00:00 9.5 0 Calma 17 Sudoeste 0 -- -- 84
2019-02-21 18:00:00 11.1 9 Sudoeste 25 Sudoeste 0 -- -- 77
2019-02-21 17:00:00 12.3 14 Sudoeste 27 Sudoeste 0 -- -- 69
2019-02-21 16:00:00 13.1 16 Sudoeste 27 Sudoeste 0 -- -- 62
2019-02-21 15:00:00 13.8 14 Sudoeste 26 Sudoeste 0 -- -- 61
2019-02-21 14:00:00 13.8 16 Sudoeste 25 Sudoeste 0 -- -- 62
2019-02-21 13:00:00 13.3 13 Sudoeste 24 Sudoeste 0 -- -- 59
2019-02-21 12:00:00 12.5 10 Sudoeste 20 Sudoeste 0 -- -- 62
2019-02-21 11:00:00 10.5 0 Calma 13 Sudeste 0 -- -- 76
2019-02-21 10:00:00 7 4 Nordeste 8 Nordeste 0 -- -- 91
2019-02-21 09:00:00 3.9 0 Calma 10 Noroeste 0 -- -- 92
2019-02-21 08:00:00 3 3 Noroeste 9 Noroeste 0 -- -- 92
2019-02-21 07:00:00 1.9 0 Calma 5 Nordeste 0 -- -- 92
2019-02-21 06:00:00 2 0 Calma 4 Nordeste 0 -- -- 92
2019-02-21 05:00:00 2.2 2 Nordeste 4 Nordeste 0 -- -- 92
2019-02-21 04:00:00 2.3 2 Nordeste 5 Nordeste 0 -- -- 92
2019-02-21 03:00:00 2.7 2 Nordeste 5 Nordeste 0 -- -- 92
2019-02-21 02:00:00 3.2 2 Nordeste 4 Nordeste 0 -- -- 92
2019-02-21 01:00:00 3.9 2 Nordeste 6 Nordeste 0 -- -- 91
2019-02-21 00:00:00 4.4 2 Nordeste 4 Este 0 -- -- 90
2019-02-20 23:00:00 5.1 0 Calma 4 Nordeste 0 -- -- 89
2019-02-20 22:00:00 5.7 0 Calma 6 Sudeste 0 -- -- 87
2019-02-20 21:00:00 6.1 0 Calma 7 Sudoeste 0 -- -- 85
2019-02-20 20:00:00 7.2 3 Sudoeste 9 Sudoeste 0 -- -- 81
2019-02-20 19:00:00 8.9 3 Sudoeste 13 Oeste 0 -- -- 72
2019-02-20 18:00:00 11.8 6 Sudoeste 22 Sudoeste 0 -- -- 58
2019-02-20 17:00:00 13 13 Sudoeste 26 Sudoeste 0 -- -- 50
2019-02-20 16:00:00 13.5 15 Sudoeste 26 Sudoeste 0 -- -- 46
2019-02-20 15:00:00 13.7 14 Sudoeste 26 Sudoeste 0 -- -- 45
2019-02-20 14:00:00 14.6 12 Sudoeste 25 Sudoeste 0 -- -- 44
2019-02-20 13:00:00 13.9 9 Sudoeste 19 Sudoeste 0 -- -- 44
2019-02-20 12:00:00 13.5 5 Sudoeste 15 Sur 0 -- -- 46
2019-02-20 11:00:00 13.1 4 Sudoeste 12 Sudoeste 0 -- -- 59
2019-02-20 10:00:00 10.9 0 Calma 5 Noroeste 0 -- -- 85
2019-02-20 09:00:00 9.3 0 Calma 3 Norte 0 -- -- 90
2019-02-20 08:00:00 8.6 0 Calma 3 Noroeste 0 -- -- 90
2019-02-20 07:00:00 8.5 0 Calma 2 Nordeste 0 -- -- 90
2019-02-20 06:00:00 8.5 0 Calma 5 Noroeste 0 -- -- 89
2019-02-20 05:00:00 8.6 0 Calma 4 Oeste 0 -- -- 89
2019-02-20 04:00:00 8.6 2 Nordeste 4 Este 0 -- -- 88
2019-02-20 03:00:00 8.7 0 Calma 3 Nordeste 0 -- -- 87
2019-02-20 02:00:00 8.8 0 Calma 4 Nordeste 0 -- -- 86
2019-02-20 01:00:00 9.1 2 Nordeste 4 Nordeste 0 -- -- 86
2019-02-20 00:00:00 9 0 Calma 3 Nordeste 0 -- -- 86
2019-02-19 23:00:00 8.9 0 Calma 3 Este 0 -- -- 86
2019-02-19 22:00:00 9 0 Calma 4 Noroeste 0 -- -- 86
2019-02-19 21:00:00 8.9 0 Calma 3 Este 0 -- -- 85
2019-02-19 20:00:00 8.8 0 Calma 3 Nordeste 0 -- -- 85
2019-02-19 19:00:00 8.6 0 Calma 3 Nordeste 0 -- -- 85
2019-02-19 18:00:00 11.2 0 Calma 14 Sudoeste 0 -- -- 74
2019-02-19 17:00:00 12.3 4 Sudoeste 21 Sudoeste 0 -- -- 65
2019-02-19 16:00:00 13.4 6 Sudoeste 20 Sudoeste 0 -- -- 59
2019-02-19 15:00:00 14.4 8 Sudoeste 24 Sudoeste 0 -- -- 56
2019-02-19 14:00:00 13.4 4 Sudoeste 14 Sudoeste 0 -- -- 52
2019-02-19 13:00:00 13.3 0 Calma 17 Sudoeste 0 -- -- 52
2019-02-19 12:00:00 12.8 5 Nordeste 12 Nordeste 0 -- -- 62
2019-02-19 11:00:00 11.6 6 Este 11 Este 0 -- -- 70
2019-02-19 10:00:00 10.1 2 Nordeste 6 Norte 0 -- -- 80
2019-02-19 09:00:00 7.9 3 Nordeste 5 Nordeste 0 -- -- 92
2019-02-19 08:00:00 6.8 4 Nordeste 7 Este 0 -- -- 92
2019-02-19 07:00:00 5.4 4 Nordeste 6 Nordeste 0 -- -- 92
2019-02-19 06:00:00 5.9 2 Nordeste 6 Noroeste 0 -- -- 92
2019-02-19 05:00:00 6.2 0 Calma 4 Nordeste 0 -- -- 92
2019-02-19 04:00:00 5 0 Calma 3 Nordeste 0 -- -- 92
2019-02-19 03:00:00 5.1 0 Calma 5 Nordeste 0 -- -- 92
2019-02-19 02:00:00 4.8 2 Nordeste 3 Nordeste 0 -- -- 92
2019-02-19 01:00:00 5.8 0 Calma 4 Nordeste 0 -- -- 91
2019-02-19 00:00:00 6.3 0 Calma 4 Nordeste 0 -- -- 91
2019-02-18 23:00:00 7.3 0 Calma 3 Nordeste 0 -- -- 90
2019-02-18 22:00:00 7.4 2 Nordeste 4 Nordeste 0 -- -- 90
2019-02-18 21:00:00 8.3 2 Nordeste 4 Nordeste 0 -- -- 89
2019-02-18 20:00:00 9.2 3 Nordeste 4 Este 0 -- -- 86
2019-02-18 19:00:00 10.2 2 Sudoeste 15 Sudoeste 0 -- -- 81
2019-02-18 18:00:00 11.8 7 Sudoeste 17 Sudoeste 0 -- -- 74
2019-02-18 17:00:00 12.6 11 Sudoeste 19 Sudoeste 0 -- -- 65
2019-02-18 16:00:00 13.4 10 Sudoeste 21 Sudoeste 0 -- -- 62
2019-02-18 15:00:00 14 9 Sudoeste 21 Sudoeste 0 -- -- 59
2019-02-18 14:00:00 14.3 10 Sudoeste 22 Sur 0 -- -- 57
2019-02-18 13:00:00 13.7 10 Sudoeste 24 Sudoeste 0 -- -- 60
2019-02-18 12:00:00 12.7 8 Sudoeste 16 Sur 0 -- -- 65
2019-02-18 11:00:00 12.1 6 Sudoeste 14 Sudoeste 0 -- -- 75
2019-02-18 10:00:00 9.4 0 Calma 5 Sudoeste 0 -- -- 92
2019-02-18 09:00:00 5.9 0 Calma 4 Norte 0 -- -- 92
2019-02-18 08:00:00 3.9 2 Nordeste 5 Noroeste 0 -- -- 92
2019-02-18 07:00:00 3.1 2 Nordeste 4 Nordeste 0 -- -- 92
2019-02-18 06:00:00 3.2 0 Calma 5 Nordeste 0 -- -- 92
2019-02-18 05:00:00 3.7 0 Calma 4 Nordeste 0 -- -- 92
2019-02-18 04:00:00 3.5 2 Nordeste 4 Nordeste 0 -- -- 92
2019-02-18 03:00:00 3.9 2 Nordeste 4 Nordeste 0 -- -- 92
2019-02-18 02:00:00 4.1 2 Nordeste 4 Nordeste 0 -- -- 92
2019-02-18 01:00:00 4.9 2 Nordeste 5 Nordeste 0 -- -- 92
2019-02-18 00:00:00 5.4 0 Calma 5 Nordeste 0 -- -- 92
2019-02-17 23:00:00 5.4 2 Nordeste 4 Nordeste 0 -- -- 91
2019-02-17 22:00:00 6.5 0 Calma 4 Nordeste 0 -- -- 91
2019-02-17 21:00:00 7.3 0 Calma 9 Sudoeste 0 -- -- 91
2019-02-17 20:00:00 8.8 4 Sudoeste 13 Sudoeste 0 -- -- 89
2019-02-17 19:00:00 10.8 10 Sudoeste 22 Sudoeste 0 -- -- 84
2019-02-17 18:00:00 11.4 11 Sudoeste 24 Sudoeste 0 -- -- 81
2019-02-17 17:00:00 11.9 13 Sudoeste 25 Sudoeste 0 -- -- 79
2019-02-17 16:00:00 13.1 9 Sudoeste 22 Sudoeste 0 -- -- 75
2019-02-17 15:00:00 13.9 10 Sudoeste 21 Sudoeste 0 -- -- 71
2019-02-17 14:00:00 13.5 8 Sudoeste 20 Sur 0 -- -- 70
2019-02-17 13:00:00 13.1 11 Sudoeste 24 Sudoeste 0 -- -- 69
2019-02-17 12:00:00 13.4 9 Sudoeste 25 Sudoeste 0 -- -- 69
2019-02-17 11:00:00 11.8 8 Sur 18 Sudoeste 0 -- -- 79
2019-02-17 10:00:00 7.6 5 Sudoeste 8 Sudeste 0 -- -- 92
2019-02-17 09:00:00 3.8 0 Calma 5 Nordeste 0 -- -- 92
2019-02-17 08:00:00 2 0 Calma 5 Nordeste 0 -- -- 92
2019-02-17 07:00:00 1.5 0 Calma 5 Nordeste 0 -- -- 92
2019-02-17 06:00:00 1.7 2 Nordeste 6 Oeste 0 -- -- 92
2019-02-17 05:00:00 1.3 0 Calma 5 Nordeste 0 -- -- 92
2019-02-17 04:00:00 0.8 0 Calma 5 Noroeste 0 -- -- 92
2019-02-17 03:00:00 1 0 Calma 4 Nordeste 0 -- -- 92
2019-02-17 02:00:00 1.4 2 Nordeste 4 Norte 0 -- -- 92
2019-02-17 01:00:00 1.5 2 Nordeste 4 Nordeste 0 -- -- 92
2019-02-17 00:00:00 1.6 2 Nordeste 4 Nordeste 0 -- -- 92
2019-02-16 23:00:00 1.8 0 Calma 3 Nordeste 0 -- -- 92
2019-02-16 22:00:00 2.4 0 Calma 4 Noroeste 0 -- -- 92
2019-02-16 21:00:00 3 0 Calma 5 Noroeste 0 -- -- 91
2019-02-16 20:00:00 5 0 Calma 7 Oeste 0 -- -- 91
2019-02-16 19:00:00 7.9 3 Nordeste 11 Sudoeste 0 -- -- 89
2019-02-16 18:00:00 9.2 6 Sudoeste 18 Sudoeste 0 -- -- 82
2019-02-16 17:00:00 12.3 7 Sudoeste 16 Sudoeste 0 -- -- 65
2019-02-16 16:00:00 13.3 8 Sudoeste 21 Sudoeste 0 -- -- 59
2019-02-16 15:00:00 13 10 Sudoeste 23 Sudoeste 0 -- -- 66
2019-02-16 14:00:00 12.8 7 Sudoeste 21 Sudoeste 0 -- -- 69
2019-02-16 13:00:00 12.9 10 Sudoeste 17 Sudoeste 0 -- -- 66
2019-02-16 12:00:00 12.7 9 Sudoeste 14 Sudoeste 0 -- -- 58
2019-02-16 11:00:00 8.2 7 Nordeste 15 Este 0 -- -- 71
2019-02-16 10:00:00 4.1 4 Nordeste 6 Nordeste 0 -- -- 92
2019-02-16 09:00:00 1.3 4 Nordeste 5 Nordeste 0 -- -- 92
2019-02-16 08:00:00 0.5 2 Nordeste 7 Nordeste 0 -- -- 92
2019-02-16 07:00:00 0.5 5 Nordeste 6 Nordeste 0 -- -- 92
2019-02-16 06:00:00 0.5 0 Calma 5 Nordeste 0 -- -- 93
2019-02-16 05:00:00 0.4 0 Calma 5 Noroeste 0 -- -- 92
2019-02-16 04:00:00 0.3 0 Calma 4 Nordeste 0 -- -- 92
2019-02-16 03:00:00 0.6 2 Nordeste 5 Nordeste 0 -- -- 92
2019-02-16 02:00:00 0.9 0 Calma 5 Nordeste 0 -- -- 92
2019-02-16 01:00:00 1.5 2 Nordeste 4 Nordeste 0 -- -- 92
2019-02-16 00:00:00 1.8 2 Nordeste 5 Oeste 0 -- -- 92
2019-02-15 23:00:00 2.5 0 Calma 4 Nordeste 0 -- -- 92
2019-02-15 22:00:00 3.4 3 Nordeste 4 Nordeste 0 -- -- 92
2019-02-15 21:00:00 4.5 3 Nordeste 5 Noroeste 0 -- -- 91
2019-02-15 20:00:00 6.1 2 Nordeste 8 Nordeste 0 -- -- 90
2019-02-15 19:00:00 8.3 0 Calma 16 Sur 0 -- -- 87
2019-02-15 18:00:00 10 6 Sudoeste 22 Sudoeste 0 -- -- 82
2019-02-15 17:00:00 11.4 13 Sudoeste 30 Sudoeste 0 -- -- 73
2019-02-15 16:00:00 12.5 14 Sudoeste 26 Sudoeste 0 -- -- 65
2019-02-15 15:00:00 13.1 12 Sudoeste 26 Sudoeste 0 -- -- 62
2019-02-15 14:00:00 12.6 17 Sudoeste 32 Sudoeste 0 -- -- 64
2019-02-15 13:00:00 12.5 17 Sudoeste 27 Sudoeste 0 -- -- 57
2019-02-15 12:00:00 12.8 14 Sudoeste 24 Sur 0 -- -- 49
2019-02-15 11:00:00 9.9 9 Sudoeste 16 Sudoeste 0 -- -- 64
2019-02-15 10:00:00 4 0 Calma 6 Nordeste 0 -- -- 85
2019-02-15 09:00:00 0.5 3 Nordeste 6 Este 0 -- -- 92
2019-02-15 08:00:00 -0.6 0 Calma 5 Noroeste 0 -- -- 92
2019-02-15 07:00:00 -0.1 0 Calma 8 Sudoeste 0 -- -- 92
2019-02-15 06:00:00 0.3 0 Calma 6 Oeste 0 -- -- 91
2019-02-15 05:00:00 1.3 0 Calma 10 Noroeste 0 -- -- 91
2019-02-15 04:00:00 1.2 0 Calma 8 Sudoeste 0 -- -- 91
2019-02-15 03:00:00 1.5 4 Sudoeste 19 Sudoeste 0 -- -- 91
2019-02-15 02:00:00 2.6 6 Sudoeste 12 Sur 0 -- -- 90
2019-02-15 01:00:00 3.3 3 Sudoeste 18 Sudoeste 0 -- -- 87
2019-02-15 00:00:00 7 9 Sudoeste 22 Sur 0 -- -- 72
2019-02-14 23:00:00 8.8 9 Sudoeste 19 Sudoeste 0 -- -- 76
2019-02-14 22:00:00 9 6 Oeste 17 Sudoeste 0 -- -- 79
2019-02-14 21:00:00 9 6 Sudoeste 18 Sudoeste 0 -- -- 79
2019-02-14 20:00:00 9.3 9 Sudoeste 23 Sudoeste 0 -- -- 76
2019-02-14 19:00:00 9.5 13 Sudoeste 29 Sudoeste 0 -- -- 72
2019-02-14 18:00:00 10.6 16 Sudoeste 33 Sur 0 -- -- 70
2019-02-14 17:00:00 11.8 18 Sudoeste 35 Sudoeste 0 -- -- 65
2019-02-14 16:00:00 12.7 17 Sudoeste 34 Sur 0 -- -- 64
2019-02-14 15:00:00 12.3 19 Sudoeste 32 Sudoeste 0 -- -- 63
2019-02-14 14:00:00 12.9 16 Sudoeste 29 Sur 0 -- -- 61
2019-02-14 13:00:00 12.5 16 Sudoeste 29 Sudoeste 0 -- -- 60
2019-02-14 12:00:00 11.6 16 Sudoeste 28 Sudoeste 0 -- -- 61
2019-02-14 11:00:00 10.9 13 Sudoeste 25 Sudoeste 0 -- -- 71
2019-02-14 10:00:00 6.5 4 Sudoeste 8 Sudoeste 0 -- -- 92
2019-02-14 09:00:00 2.7 2 Nordeste 5 Noroeste 0 -- -- 92
2019-02-14 08:00:00 1.9 0 Calma 7 Nordeste 0 -- -- 93
2019-02-14 07:00:00 1.7 2 Nordeste 6 Nordeste 0 -- -- 93
2019-02-14 06:00:00 1.2 2 Nordeste 5 Nordeste 0 -- -- 92
2019-02-14 05:00:00 1.3 0 Calma 5 Nordeste 0 -- -- 93
2019-02-14 04:00:00 1.4 2 Nordeste 4 Nordeste 0 -- -- 92
2019-02-14 03:00:00 1.7 3 Nordeste 5 Nordeste 0 -- -- 92
2019-02-14 02:00:00 1.8 0 Calma 5 Nordeste 0 -- -- 92
2019-02-14 01:00:00 2 2 Nordeste 5 Nordeste 0 -- -- 92
2019-02-14 00:00:00 2.5 4 Nordeste 5 Nordeste 0 -- -- 92
2019-02-13 23:00:00 2.9 0 Calma 4 Nordeste 0 -- -- 92
2019-02-13 22:00:00 3.6 2 Nordeste 6 Nordeste 0 -- -- 90
2019-02-13 21:00:00 4.3 3 Nordeste 7 Oeste 0 -- -- 89
2019-02-13 20:00:00 5.5 0 Calma 10 Sudoeste 0 -- -- 87
2019-02-13 19:00:00 6.5 6 Sudoeste 13 Sudoeste 0 -- -- 84
2019-02-13 18:00:00 10.1 10 Sudoeste 21 Sudoeste 0 -- -- 67
2019-02-13 17:00:00 11.5 9 Sudoeste 18 Sur 0 -- -- 60
2019-02-13 16:00:00 12.5 3 Oeste 22 Sudoeste 0 -- -- 62
2019-02-13 15:00:00 13 9 Sudoeste 21 Sur 0 -- -- 55
2019-02-13 14:00:00 12.5 8 Sudoeste 20 Sudoeste 0 -- -- 54
2019-02-13 13:00:00 11.9 4 Sudoeste 17 Sudoeste 0 -- -- 55
2019-02-13 12:00:00 11.8 0 Calma 14 Nordeste 0 -- -- 54
2019-02-13 11:00:00 10.2 5 Nordeste 12 Nordeste 0 -- -- 60
2019-02-13 10:00:00 8.3 5 Nordeste 10 Nordeste 0 -- -- 73
2019-02-13 09:00:00 3.3 5 Nordeste 9 Nordeste 0 -- -- 84
2019-02-13 08:00:00 1.3 3 Nordeste 8 Nordeste 0 -- -- 84
2019-02-13 07:00:00 0.9 3 Nordeste 7 Este 0 -- -- 86
2019-02-13 06:00:00 1.4 2 Norte 8 Nordeste 0 -- -- 85
2019-02-13 05:00:00 0.6 5 Nordeste 8 Nordeste 0 -- -- 90
2019-02-13 04:00:00 0.1 2 Nordeste 6 Nordeste 0 -- -- 91
2019-02-13 03:00:00 0.4 2 Nordeste 5 Nordeste 0 -- -- 91
2019-02-13 02:00:00 1.6 3 Norte 6 Noroeste 0 -- -- 90
2019-02-13 01:00:00 1.6 4 Nordeste 6 Nordeste 0 -- -- 90
2019-02-13 00:00:00 1.9 0 Calma 6 Nordeste 0 -- -- 90
2019-02-12 23:00:00 2.5 3 Nordeste 5 Nordeste 0 -- -- 89
2019-02-12 22:00:00 3.1 2 Nordeste 5 Nordeste 0 -- -- 90
2019-02-12 21:00:00 4.2 2 Nordeste 5 Nordeste 0 -- -- 89
2019-02-12 20:00:00 5.3 0 Calma 5 Noroeste 0 -- -- 86
2019-02-12 19:00:00 7.7 0 Calma 15 Sudoeste 0 -- -- 79
2019-02-12 18:00:00 10.8 8 Sudoeste 21 Sudoeste 0 -- -- 64
2019-02-12 17:00:00 12.2 12 Sudoeste 27 Sudoeste 0 -- -- 59
2019-02-12 16:00:00 13.2 13 Sudoeste 29 Sudoeste 0 -- -- 54
2019-02-12 15:00:00 14.1 13 Sudoeste 24 Sudoeste 0 -- -- 44
2019-02-12 14:00:00 13.8 12 Sudoeste 25 Sudoeste 0 -- -- 47
2019-02-12 13:00:00 13.1 13 Sudoeste 21 Sur 0 -- -- 49
2019-02-12 12:00:00 12.1 0 Calma 13 Sudoeste 0 -- -- 59
2019-02-12 11:00:00 9.3 4 Sudoeste 12 Sudoeste 0 -- -- 79
2019-02-12 10:00:00 5.7 0 Calma 5 Nordeste 0 -- -- 89
2019-02-12 09:00:00 3.1 3 Nordeste 8 Noroeste 0 -- -- 91
2019-02-12 08:00:00 2.8 5 Nordeste 10 Nordeste 0 -- -- 90
2019-02-12 07:00:00 2.6 3 Nordeste 9 Nordeste 0 -- -- 89
2019-02-12 06:00:00 2.9 0 Calma 8 Este 0 -- -- 87
2019-02-12 05:00:00 3.6 3 Nordeste 7 Este 0 -- -- 85
2019-02-12 04:00:00 4.1 2 Nordeste 8 Noroeste 0 -- -- 79
2019-02-12 03:00:00 5 2 Oeste 12 Oeste 0 -- -- 75
2019-02-12 02:00:00 7.1 3 Norte 8 Noroeste 0 -- -- 61
2019-02-12 01:00:00 7.7 3 Noroeste 10 Oeste 0 -- -- 61
2019-02-12 00:00:00 6.3 0 Calma 5 Nordeste 0 -- -- 88
2019-02-11 23:00:00 5.9 3 Nordeste 5 Nordeste 0 -- -- 90
2019-02-11 22:00:00 7 0 Calma 4 Noroeste 0 -- -- 89
2019-02-11 21:00:00 6.8 0 Calma 3 Oeste 0 -- -- 87
2019-02-11 20:00:00 6.8 0 Calma 5 Sudoeste 0 -- -- 86
2019-02-11 19:00:00 7.3 0 Calma 10 Sur 0 -- -- 84
2019-02-11 18:00:00 10.5 5 Sudoeste 17 Sudoeste 0 -- -- 72
2019-02-11 17:00:00 11.5 6 Sudoeste 25 Sudoeste 0 -- -- 64
2019-02-11 16:00:00 12.2 12 Sudoeste 28 Sudoeste 0 -- -- 58
2019-02-11 15:00:00 12.5 12 Sudoeste 28 Sudoeste 0 -- -- 54
2019-02-11 14:00:00 12.9 13 Sudoeste 28 Sudoeste 0 -- -- 55
2019-02-11 13:00:00 12.6 11 Sur 26 Sudoeste 0 -- -- 57
2019-02-11 12:00:00 13 5 Oeste 16 Noroeste 0 -- -- 56
2019-02-11 11:00:00 10.6 2 Sur 10 Noroeste 0 -- -- 60
2019-02-11 10:00:00 9.5 5 Noroeste 11 Noroeste 0 -- -- 55
2019-02-11 09:00:00 9.4 5 Noroeste 12 Noroeste 0 -- -- 54
2019-02-11 08:00:00 7.5 4 Nordeste 6 Este 0 -- -- 71
2019-02-11 07:00:00 8.8 2 Nordeste 7 Norte 0 -- -- 67
2019-02-11 06:00:00 8.9 0 Calma 9 Oeste 0 -- -- 69
2019-02-11 05:00:00 9.3 2 Nordeste 12 Oeste 0 -- -- 63
2019-02-11 04:00:00 9.7 4 Noroeste 9 Noroeste 0 -- -- 62
2019-02-11 03:00:00 9.3 0 Calma 4 Nordeste 0 -- -- 79
2019-02-11 02:00:00 9.6 0 Calma 8 Este 0 -- -- 82
2019-02-11 01:00:00 9.8 0 Calma 5 Sur 0 -- -- 82
2019-02-11 00:00:00 10 0 Calma 4 Norte 0 -- -- 86
2019-02-10 23:00:00 10.5 0 Calma 9 Este 0 -- -- 87
2019-02-10 22:00:00 9.8 0 Calma 6 Nordeste 0 -- -- 90
2019-02-10 21:00:00 9.4 0 Calma 10 Noroeste 0 -- -- 89
2019-02-10 20:00:00 9.5 2 Sur 6 Noroeste 0 -- -- 87
2019-02-10 19:00:00 10.2 0 Calma 17 Norte 0 -- -- 85
2019-02-10 18:00:00 11.9 7 Nordeste 20 Nordeste 0 -- -- 75
2019-02-10 17:00:00 13.8 17 Nordeste 25 Nordeste 0 -- -- 55
2019-02-10 16:00:00 18.1 6 Sudoeste 13 Sudoeste 0 -- -- 39
2019-02-10 15:00:00 17.4 5 Sudoeste 20 Oeste 0 -- -- 40
2019-02-10 14:00:00 16.6 6 Oeste 48 Sudoeste 0 -- -- 40
2019-02-10 13:00:00 17.5 9 Oeste 46 Oeste 0 -- -- 40
2019-02-10 12:00:00 16 7 Sudoeste 32 Sur 0 -- -- 44
2019-02-10 11:00:00 14.4 7 Sudoeste 40 Sur 0 -- -- 46
2019-02-10 10:00:00 12.9 9 Sudoeste 37 Sudoeste 0 -- -- 49
2019-02-10 09:00:00 12 3 Sudoeste 21 Sur 0 -- -- 51
2019-02-10 08:00:00 8 3 Nordeste 14 Sudoeste 0 -- -- 71
2019-02-10 07:00:00 10.1 4 Sur 19 Sudoeste 0 -- -- 57
2019-02-10 06:00:00 11.1 8 Sudoeste 17 Sudoeste 0 -- -- 55
2019-02-10 05:00:00 10.6 8 Sudoeste 21 Sur 0 -- -- 55
2019-02-10 04:00:00 11.8 8 Sur 31 Sur 0 -- -- 50
2019-02-10 03:00:00 11.6 9 Sur 26 Sudoeste 0 -- -- 56
2019-02-10 02:00:00 10.7 12 Sur 28 Sudoeste 0 -- -- 74
2019-02-10 01:00:00 10.6 13 Sudoeste 31 Sur 0 -- -- 81
2019-02-10 00:00:00 10.3 9 Sur 23 Sur 0 -- -- 86
2019-02-09 23:00:00 7.5 2 Sudoeste 16 Sur 0 -- -- 91
2019-02-09 22:00:00 6.7 6 Sudoeste 20 Sudeste 0 -- -- 91
2019-02-09 21:00:00 7.1 0 Calma 8 Sudoeste 0 -- -- 91
2019-02-09 20:00:00 8.6 3 Nordeste 12 Sur 0 -- -- 90
2019-02-09 19:00:00 9.6 2 Nordeste 12 Sudoeste 0 -- -- 87
2019-02-09 18:00:00 11 2 Sur 16 Sur 0 -- -- 81
2019-02-09 17:00:00 12.8 7 Sudoeste 19 Sudoeste 0 -- -- 70
2019-02-09 16:00:00 13.7 8 Sudoeste 20 Sudoeste 0 -- -- 62
2019-02-09 15:00:00 14.9 10 Sudoeste 19 Sudoeste 0 -- -- 57
2019-02-09 14:00:00 14.3 9 Sudoeste 17 Sudoeste 0 -- -- 59
2019-02-09 13:00:00 15.2 7 Sudoeste 12 Sudoeste 0 -- -- 61
2019-02-09 12:00:00 12.5 0 Calma 10 Este 0 -- -- 70
2019-02-09 11:00:00 10.1 0 Calma 7 Este 0 -- -- 91
2019-02-09 10:00:00 7.9 0 Calma 3 Nordeste 0 -- -- 92
2019-02-09 09:00:00 5.6 3 Nordeste 6 Nordeste 0 -- -- 92
2019-02-09 08:00:00 4.3 3 Nordeste 5 Nordeste 0 -- -- 92
2019-02-09 07:00:00 4.2 0 Calma 6 Nordeste 0 -- -- 92
2019-02-09 06:00:00 4.5 0 Calma 7 Nordeste 0 -- -- 92
2019-02-09 05:00:00 4.4 4 Nordeste 7 Nordeste 0 -- -- 92
2019-02-09 04:00:00 4.9 0 Calma 8 Nordeste 0 -- -- 92
2019-02-09 03:00:00 3.7 2 Nordeste 6 Nordeste 0 -- -- 92
2019-02-09 02:00:00 3.5 0 Calma 5 Oeste 0 -- -- 92
2019-02-09 01:00:00 4.4 3 Norte 9 Nordeste 0 -- -- 92
2019-02-09 00:00:00 4.2 0 Calma 6 Nordeste 0 -- -- 92
2019-02-08 23:00:00 5.3 0 Calma 5 Nordeste 0 -- -- 92
2019-02-08 22:00:00 6.8 0 Calma 8 Nordeste 0 -- -- 91
2019-02-08 21:00:00 8.2 4 Sudoeste 12 Sur 0 -- -- 91
2019-02-08 20:00:00 10.4 3 Sudoeste 18 Oeste 0 -- -- 89
2019-02-08 19:00:00 11.6 5 Oeste 26 Sudoeste 0 -- -- 85
2019-02-08 18:00:00 11.9 10 Sudoeste 36 Oeste 0 -- -- 85
2019-02-08 17:00:00 12.2 17 Sudoeste 37 Sudoeste 0 -- -- 82
2019-02-08 16:00:00 12.6 14 Sudoeste 40 Sur 0 -- -- 79
2019-02-08 15:00:00 13.6 9 Sur 33 Sur 0 -- -- 69
2019-02-08 14:00:00 13.5 12 Sudoeste 36 Sudoeste 0 -- -- 55
2019-02-08 13:00:00 14.2 15 Sudoeste 31 Sudoeste 0 -- -- 56
2019-02-08 12:00:00 12.8 2 Sudoeste 12 Sudoeste 0 -- -- 65
2019-02-08 11:00:00 8.7 0 Calma 9 Sudoeste 0 -- -- 92
2019-02-08 10:00:00 7.1 0 Calma 6 Norte 0 -- -- 92
2019-02-08 09:00:00 5.3 2 Norte 6 Noroeste 0 -- -- 92
2019-02-08 08:00:00 5.3 0 Calma 4 Noroeste 0 -- -- 92
2019-02-08 07:00:00 6.3 0 Calma 4 Oeste 0 -- -- 92
2019-02-08 06:00:00 7.4 0 Calma 8 Sur 0 -- -- 92
2019-02-08 05:00:00 7.3 0 Calma 4 Sudoeste 0 -- -- 92
2019-02-08 04:00:00 7.1 0 Calma 3 Este 0 -- -- 92
2019-02-08 03:00:00 7.3 0 Calma 4 Sudoeste 0 -- -- 92
2019-02-08 02:00:00 6.9 0 Calma 4 Nordeste 0 -- -- 92
2019-02-08 01:00:00 6.2 0 Calma 5 Nordeste 0 -- -- 92
2019-02-08 00:00:00 5.2 2 Nordeste 4 Norte 0 -- -- 92
2019-02-07 23:00:00 5.2 2 Nordeste 4 Nordeste 0 -- -- 92
2019-02-07 22:00:00 5.8 2 Nordeste 5 Nordeste 0 -- -- 92
2019-02-07 21:00:00 6.2 4 Nordeste 6 Nordeste 0 -- -- 91
2019-02-07 20:00:00 6.4 0 Calma 4 Nordeste 0 -- -- 91
2019-02-07 19:00:00 7.7 2 Nordeste 5 Nordeste 0 -- -- 91
2019-02-07 18:00:00 9.2 0 Calma 10 Sudoeste 0 -- -- 87
2019-02-07 17:00:00 11.9 5 Sudoeste 15 Sudoeste 0 -- -- 76
2019-02-07 16:00:00 12.6 8 Sudoeste 17 Sudoeste 0 -- -- 73
2019-02-07 15:00:00 12.9 10 Sudoeste 18 Sudoeste 0 -- -- 72
2019-02-07 14:00:00 11.7 5 Sudoeste 15 Sudoeste 0 -- -- 79
2019-02-07 13:00:00 11.1 6 Sudoeste 18 Sudoeste 0 -- -- 84
2019-02-07 12:00:00 11.4 12 Sudoeste 17 Sudoeste 0 -- -- 80
2019-02-07 11:00:00 10 3 Nordeste 8 Este 0 -- -- 86
2019-02-07 10:00:00 7.4 4 Nordeste 14 Nordeste 0 -- -- 91
2019-02-07 09:00:00 6.4 3 Nordeste 8 Noroeste 0 -- -- 92
2019-02-07 08:00:00 5.2 2 Norte 8 Noroeste 0 -- -- 92
2019-02-07 07:00:00 4.6 5 Nordeste 8 Nordeste 0 -- -- 92
2019-02-07 06:00:00 5.2 5 Nordeste 15 Nordeste 0 -- -- 92
2019-02-07 05:00:00 6.1 3 Nordeste 5 Nordeste 0 -- -- 92
2019-02-07 04:00:00 5.4 0 Calma 4 Nordeste 0 -- -- 92
2019-02-07 03:00:00 4.7 0 Calma 5 Nordeste 0 -- -- 92
2019-02-07 02:00:00 5.1 0 Calma 6 Noroeste 0 -- -- 92
2019-02-07 01:00:00 6.2 0 Calma 4 Noroeste 0 -- -- 92
2019-02-07 00:00:00 5 0 Calma 4 Nordeste 0 -- -- 92
2019-02-06 23:00:00 5 0 Calma 4 Nordeste 0 -- -- 92
2019-02-06 22:00:00 6.1 0 Calma 5 Nordeste 0 -- -- 92
2019-02-06 21:00:00 7.2 0 Calma 5 Oeste 0 -- -- 91
2019-02-06 20:00:00 9.3 3 Nordeste 10 Sudoeste 0 -- -- 90
2019-02-06 19:00:00 11.2 5 Sudoeste 19 Sudoeste 0 -- -- 87
2019-02-06 18:00:00 10.9 7 Sudoeste 16 Sudoeste 0 -- -- 85
2019-02-06 17:00:00 12.5 7 Sudoeste 15 Sudoeste 0 -- -- 75
2019-02-06 16:00:00 13.1 10 Sudoeste 19 Sudoeste 0 -- -- 71
2019-02-06 15:00:00 14.1 8 Sudoeste 17 Sudoeste 0 -- -- 66
2019-02-06 14:00:00 14 9 Sudoeste 18 Sudoeste 0 -- -- 69
2019-02-06 13:00:00 13.1 5 Sudoeste 16 Sudoeste 0 -- -- 66
2019-02-06 12:00:00 13.4 7 Sudoeste 15 Sudoeste 0 -- -- 65
2019-02-06 11:00:00 10.3 2 Sudoeste 9 Sudoeste 0 -- -- 85
2019-02-06 10:00:00 6.4 0 Calma 4 Nordeste 0 -- -- 92
2019-02-06 09:00:00 3.9 2 Nordeste 4 Norte 0 -- -- 92
2019-02-06 08:00:00 3.2 0 Calma 4 Nordeste 0 -- -- 92
2019-02-06 07:00:00 3 0 Calma 5 Nordeste 0 -- -- 92
2019-02-06 06:00:00 2.5 2 Nordeste 5 Nordeste 0 -- -- 92
2019-02-06 05:00:00 2.7 0 Calma 5 Nordeste 0 -- -- 92
2019-02-06 04:00:00 2.7 4 Nordeste 5 Nordeste 0 -- -- 92
2019-02-06 03:00:00 2.7 2 Nordeste 6 Nordeste 0 -- -- 91
2019-02-06 02:00:00 3.3 0 Calma 7 Nordeste 0 -- -- 91
2019-02-06 01:00:00 3.4 3 Nordeste 5 Nordeste 0 -- -- 91
2019-02-06 00:00:00 3.7 3 Nordeste 5 Nordeste 0 -- -- 91
2019-02-05 23:00:00 4.1 4 Nordeste 5 Norte 0 -- -- 90
2019-02-05 22:00:00 4.4 2 Nordeste 5 Nordeste 0 -- -- 89
2019-02-05 21:00:00 4.7 2 Nordeste 4 Nordeste 0 -- -- 87
2019-02-05 20:00:00 5.4 2 Nordeste 4 Nordeste 0 -- -- 85
2019-02-05 19:00:00 6.1 0 Calma 3 Noroeste 0 -- -- 82
2019-02-05 18:00:00 8.1 0 Calma 6 Sudoeste 0 -- -- 74
2019-02-05 17:00:00 12.6 4 Sudoeste 15 Sudoeste 0 -- -- 52
2019-02-05 16:00:00 14.4 7 Sudoeste 14 Sudoeste 0 -- -- 47
2019-02-05 15:00:00 13.7 8 Sudoeste 15 Sudoeste 0 -- -- 51
2019-02-05 14:00:00 12.7 9 Sudoeste 17 Sur 0 -- -- 54
2019-02-05 13:00:00 12.7 9 Sudoeste 16 Sudoeste 0 -- -- 52
2019-02-05 12:00:00 10.5 0 Calma 7 Nordeste 0 -- -- 60
2019-02-05 11:00:00 9.4 4 Nordeste 15 Este 0 -- -- 60
2019-02-05 10:00:00 6.9 5 Nordeste 11 Nordeste 0 -- -- 66
2019-02-05 09:00:00 3.8 3 Nordeste 6 Nordeste 0 -- -- 81
2019-02-05 08:00:00 4.5 2 Nordeste 6 Nordeste 0 -- -- 79
2019-02-05 07:00:00 4.3 2 Norte 6 Nordeste 0 -- -- 77
2019-02-05 06:00:00 3.6 0 Calma 5 Noroeste 0 -- -- 79
2019-02-05 05:00:00 4.5 0 Calma 6 Noroeste 0 -- -- 74
2019-02-05 04:00:00 4.7 0 Calma 6 Oeste 0 -- -- 71
2019-02-05 03:00:00 4.8 2 Nordeste 6 Noroeste 0 -- -- 70
2019-02-05 02:00:00 4.7 2 Noroeste 5 Noroeste 0 -- -- 71
2019-02-05 01:00:00 5.2 0 Calma 4 Nordeste 0 -- -- 75
2019-02-05 00:00:00 5.1 3 Nordeste 5 Nordeste 0 -- -- 74
2019-02-04 23:00:00 4.8 0 Calma 5 Nordeste 0 -- -- 71
2019-02-04 22:00:00 4.2 2 Nordeste 5 Nordeste 0 -- -- 69
2019-02-04 21:00:00 4 3 Nordeste 5 Este 0 -- -- 64
2019-02-04 20:00:00 4 3 Nordeste 4 Nordeste 0 -- -- 61
2019-02-04 19:00:00 5.1 0 Calma 4 Nordeste 0 -- -- 56
2019-02-04 18:00:00 5.9 0 Calma 11 Sudoeste 0 -- -- 50
2019-02-04 17:00:00 9.5 6 Sudoeste 18 Sudoeste 0 -- -- 30
2019-02-04 16:00:00 11.4 10 Sudoeste 18 Sudoeste 0 -- -- 27
2019-02-04 15:00:00 11.6 10 Sudoeste 20 Sudoeste 0 -- -- 27
2019-02-04 14:00:00 11.4 8 Sudoeste 19 Sudoeste 0 -- -- 29
2019-02-04 13:00:00 10.6 9 Sudoeste 21 Sudoeste 0 -- -- 34
2019-02-04 12:00:00 9.9 9 Sudoeste 17 Sudoeste 0 -- -- 36
2019-02-04 11:00:00 5.1 2 Nordeste 11 Este 0 -- -- 44
2019-02-04 10:00:00 1.5 5 Nordeste 10 Norte 0 -- -- 54
2019-02-04 09:00:00 -0.2 5 Norte 13 Nordeste 0 -- -- 65
2019-02-04 08:00:00 -2.6 0 Calma 10 Nordeste 0 -- -- 74
2019-02-04 07:00:00 -2.9 0 Calma 9 Nordeste 0 -- -- 71
2019-02-04 06:00:00 -3.1 3 Nordeste 7 Nordeste 0 -- -- 71
2019-02-04 05:00:00 -3 0 Calma 5 Nordeste 0 -- -- 71
2019-02-04 04:00:00 -2.5 2 Nordeste 8 Nordeste 0 -- -- 69
2019-02-04 03:00:00 -2.1 3 Nordeste 7 Nordeste 0 -- -- 67
2019-02-04 02:00:00 -1.3 3 Nordeste 8 Oeste 0 -- -- 62
2019-02-04 01:00:00 0.1 0 Calma 12 Noroeste 0 -- -- 55
2019-02-04 00:00:00 2.2 7 Nordeste 14 Nordeste 0 -- -- 49
2019-02-03 23:00:00 5.2 7 Norte 20 Nordeste 0 -- -- 39
2019-02-03 22:00:00 0.9 2 Nordeste 8 Nordeste 0 -- -- 61
2019-02-03 21:00:00 1.1 3 Nordeste 7 Nordeste 0 -- -- 60
2019-02-03 20:00:00 2.6 0 Calma 13 Norte 0 -- -- 55
2019-02-03 19:00:00 5.4 4 Nordeste 12 Noroeste 0 -- -- 50
2019-02-03 18:00:00 5.6 0 Calma 12 Nordeste 0 -- -- 54
2019-02-03 17:00:00 9.5 3 Sudoeste 21 Sur 0 -- -- 39
2019-02-03 16:00:00 11.8 14 Sudoeste 26 Sudoeste 0 -- -- 30
2019-02-03 15:00:00 11.8 9 Sudoeste 22 Sudoeste 0 -- -- 34
2019-02-03 14:00:00 10.7 8 Sudoeste 27 Sudoeste 0 -- -- 39
2019-02-03 13:00:00 10.4 8 Sudoeste 22 Sudoeste 0 -- -- 40
2019-02-03 12:00:00 9.6 4 Noroeste 12 Noroeste 0 -- -- 40
2019-02-03 11:00:00 5 5 Nordeste 14 Este 0 -- -- 48
2019-02-03 10:00:00 -0.2 0 Calma 4 Nordeste 0 -- -- 86
2019-02-03 09:00:00 -1.2 0 Calma 7 Nordeste 0 -- -- 89
2019-02-03 08:00:00 -0.8 0 Calma 5 Nordeste 0 -- -- 86
2019-02-03 07:00:00 1.3 4 Noroeste 10 Noroeste 0 -- -- 71
2019-02-03 06:00:00 2.4 6 Norte 18 Norte 0 -- -- 63
2019-02-03 05:00:00 1.6 6 Noroeste 13 Noroeste 0 -- -- 85
2019-02-03 04:00:00 0.3 0 Calma 7 Nordeste 0 -- -- 92
2019-02-03 03:00:00 1 0 Calma 5 Oeste 0 -- -- 92
2019-02-03 02:00:00 2.1 0 Calma 4 Nordeste 0 -- -- 92
2019-02-03 01:00:00 3.5 2 Nordeste 5 Nordeste 0 -- -- 92
2019-02-03 00:00:00 4.1 0 Calma 6 Noroeste 0 -- -- 92
2019-02-02 23:00:00 4.3 0 Calma 11 Noroeste 0 -- -- 92
2019-02-02 22:00:00 3.8 0 Calma 6 Nordeste 0 -- -- 92
2019-02-02 21:00:00 4.1 0 Calma 9 Nordeste 0 -- -- 92
2019-02-02 20:00:00 5.4 2 Nordeste 10 Noroeste 0.1 -- -- 92
2019-02-02 19:00:00 6.1 0 Calma 27 Nordeste 1 -- -- 89
2019-02-02 18:00:00 9.4 4 Sudoeste 11 Sudoeste 0 -- -- 66
2019-02-02 17:00:00 9.9 5 Sudoeste 14 Nordeste 0 -- -- 61
2019-02-02 16:00:00 11.9 8 Nordeste 14 Nordeste 0 -- -- 54
2019-02-02 15:00:00 12 3 Nordeste 17 Sudoeste 0 -- -- 51
2019-02-02 14:00:00 11.2 8 Sudoeste 16 Sudoeste 0 -- -- 52
2019-02-02 13:00:00 10 3 Sudoeste 14 Sudoeste 0 -- -- 58
2019-02-02 12:00:00 9.8 6 Sudoeste 15 Sudoeste 0 -- -- 56
2019-02-02 11:00:00 9.6 5 Sudoeste 12 Sudoeste 0 -- -- 60
2019-02-02 10:00:00 8.2 3 Oeste 14 Nordeste 0 -- -- 66
2019-02-02 09:00:00 5.7 5 Noroeste 10 Noroeste 0 -- -- 82
2019-02-02 08:00:00 2.1 0 Calma 6 Nordeste 0 -- -- 92
2019-02-02 07:00:00 1.2 2 Nordeste 7 Nordeste 0 -- -- 92
2019-02-02 06:00:00 1.5 2 Nordeste 8 Este 0 -- -- 91
2019-02-02 05:00:00 2.5 2 Nordeste 7 Nordeste 0 -- -- 87
2019-02-02 04:00:00 3.8 0 Calma 19 Sudoeste 0 -- -- 81
2019-02-02 03:00:00 6.1 2 Nordeste 16 Nordeste 0 -- -- 71
2019-02-02 02:00:00 8.3 10 Nordeste 18 Sudoeste 0 -- -- 60
2019-02-02 01:00:00 9.9 3 Oeste 28 Nordeste 0 -- -- 57
2019-02-02 00:00:00 9.8 8 Oeste 32 Oeste 0 -- -- 59
2019-02-01 23:00:00 6.3 0 Calma 14 Sudoeste 0 -- -- 81
2019-02-01 22:00:00 5.3 0 Calma 5 Nordeste 0 -- -- 84
2019-02-01 21:00:00 6.5 2 Nordeste 8 Oeste 0 -- -- 78
2019-02-01 20:00:00 8.9 3 Sudoeste 8 Sudoeste 0 -- -- 67
2019-02-01 19:00:00 12.1 3 Oeste 25 Sudoeste 0 -- -- 59
2019-02-01 18:00:00 13.3 7 Sudoeste 27 Sudoeste 0 -- -- 49
2019-02-01 17:00:00 13.5 10 Sur 22 Sudoeste 0 -- -- 47
2019-02-01 16:00:00 13.4 5 Sudoeste 32 Sudoeste 0 -- -- 69
2019-02-01 15:00:00 14 5 Sudoeste 40 Sudoeste 0 -- -- 71
2019-02-01 14:00:00 13.5 10 Sudoeste 37 Sudeste 0 -- -- 64
2019-02-01 13:00:00 13.5 10 Sudoeste 36 Sudoeste 0 -- -- 61
2019-02-01 12:00:00 13.5 9 Sudoeste 21 Sur 0 -- -- 59
2019-02-01 11:00:00 13.9 4 Sudoeste 34 Oeste 0 -- -- 65
2019-02-01 10:00:00 13.5 8 Oeste 39 Oeste 0 -- -- 82
2019-02-01 09:00:00 13.3 4 Oeste 33 Sudoeste 0 -- -- 80
2019-02-01 08:00:00 13.9 7 Oeste 28 Sudoeste 0 -- -- 70
2019-02-01 07:00:00 13.2 4 Sudoeste 26 Sudoeste 0 -- -- 71
2019-02-01 06:00:00 12.8 8 Sudoeste 22 Sudoeste 0 -- -- 78
2019-02-01 05:00:00 10 9 Sudoeste 15 Sudoeste 0 -- -- 86
2019-02-01 04:00:00 8.7 2 Sudoeste 15 Sudoeste 0 -- -- 86
2019-02-01 03:00:00 9.9 3 Sudoeste 21 Sudoeste 0 -- -- 81
2019-02-01 02:00:00 11.3 12 Sudoeste 21 Sudoeste 0 -- -- 82
2019-02-01 01:00:00 11 6 Sudoeste 17 Sur 0 -- -- 79
2019-02-01 00:00:00 13 6 Sudoeste 18 Sur 0 -- -- 66
2019-01-31 23:00:00 12.6 8 Sudoeste 32 Sur 0 -- -- 71
2019-01-31 22:00:00 14.7 7 Oeste 26 Sudoeste 0 -- -- 56
2019-01-31 21:00:00 14.9 3 Sur 31 Sudoeste 0 -- -- 56
2019-01-31 20:00:00 15 13 Sudoeste 31 Sudoeste 0 -- -- 55
2019-01-31 19:00:00 13.8 0 Calma 28 Sudoeste 0 -- -- 57
2019-01-31 18:00:00 14.1 5 Nordeste 18 Este 0 -- -- 55
2019-01-31 17:00:00 15.5 4 Oeste 29 Sudoeste 0 -- -- 51
2019-01-31 16:00:00 16.1 4 Oeste 30 Sudoeste 0 -- -- 51
2019-01-31 15:00:00 15.6 13 Sudoeste 40 Sur 0 -- -- 54
2019-01-31 14:00:00 15 8 Sudoeste 23 Sudoeste 0 -- -- 55
2019-01-31 13:00:00 12.3 2 Noroeste 36 Sudoeste 0 -- -- 59
2019-01-31 12:00:00 11 12 Sur 32 Sur 0 -- -- 60
2019-01-31 11:00:00 11.6 5 Sur 32 Noroeste 0 -- -- 56
2019-01-31 10:00:00 10.7 4 Oeste 26 Oeste 0 -- -- 59
2019-01-31 09:00:00 8.8 3 Sudoeste 25 Noroeste 0 -- -- 61
2019-01-31 08:00:00 7.7 3 Sudoeste 22 Sur 0 -- -- 62
2019-01-31 07:00:00 7.9 6 Sudoeste 34 Sur 0 -- -- 59
2019-01-31 06:00:00 8.5 11 Sudoeste 25 Sudoeste 0 -- -- 52
2019-01-31 05:00:00 8.9 4 Oeste 21 Oeste 0 -- -- 49
2019-01-31 04:00:00 9.5 6 Noroeste 21 Noroeste 0 -- -- 48
2019-01-31 03:00:00 8.3 0 Calma 14 Noroeste 0 -- -- 54
2019-01-31 02:00:00 7.3 0 Calma 21 Oeste 0 -- -- 52
2019-01-31 01:00:00 8.5 3 Oeste 20 Sudoeste 0 -- -- 50
2019-01-31 00:00:00 4 3 Sudoeste 12 Sudoeste 0 -- -- 74
2019-01-30 23:00:00 6.1 2 Oeste 24 Sudoeste 0 -- -- 60
2019-01-30 22:00:00 5.3 2 Sudoeste 10 Nordeste 0 -- -- 76
2019-01-30 21:00:00 3 0 Calma 9 Oeste 0 -- -- 82
2019-01-30 20:00:00 3.4 2 Nordeste 7 Nordeste 0 -- -- 78
2019-01-30 19:00:00 4.8 0 Calma 7 Nordeste 0 -- -- 71
2019-01-30 18:00:00 7.7 3 Sudoeste 16 Sudoeste 0 -- -- 56
2019-01-30 17:00:00 10.7 4 Sudoeste 18 Sudoeste 0 -- -- 44
2019-01-30 16:00:00 12.6 4 Sudoeste 17 Sudoeste 0 -- -- 44
2019-01-30 15:00:00 11.9 2 Sudoeste 19 Sudoeste 0 -- -- 46
2019-01-30 14:00:00 11 5 Sudoeste 19 Sudoeste 0 -- -- 48
2019-01-30 13:00:00 9.8 3 Sudoeste 16 Sudoeste 0 -- -- 54
2019-01-30 12:00:00 8.9 4 Sudoeste 17 Sudoeste 0 -- -- 61
2019-01-30 11:00:00 6.6 3 Sudoeste 8 Sudoeste 0 -- -- 79
2019-01-30 10:00:00 1.9 2 Nordeste 7 Nordeste 0 -- -- 91
2019-01-30 09:00:00 0 2 Nordeste 8 Nordeste 0 -- -- 92
2019-01-30 08:00:00 0.4 2 Noroeste 8 Noroeste 0 -- -- 92
2019-01-30 07:00:00 0.2 0 Calma 9 Oeste 0 -- -- 92
2019-01-30 06:00:00 0 0 Calma 7 Este 0 -- -- 92
2019-01-30 05:00:00 0.7 2 Nordeste 8 Nordeste 0 -- -- 92
2019-01-30 04:00:00 0.5 0 Calma 11 Nordeste 0 -- -- 92
2019-01-30 03:00:00 1 0 Calma 9 Nordeste 0 -- -- 92
2019-01-30 02:00:00 1.1 0 Calma 9 Nordeste 0 -- -- 92
2019-01-30 01:00:00 1.3 0 Calma 6 Este 0 -- -- 91
2019-01-30 00:00:00 1.9 0 Calma 6 Nordeste 0 -- -- 90
2019-01-29 23:00:00 3.4 0 Calma 7 Este 0 -- -- 86
2019-01-29 22:00:00 5.5 5 Nordeste 20 Sur 0 -- -- 76
2019-01-29 21:00:00 7.5 4 Sur 20 Sudeste 0 -- -- 70
2019-01-29 20:00:00 7.2 4 Sudoeste 21 Sur 0 -- -- 71
2019-01-29 19:00:00 7.5 2 Sur 14 Sudoeste 0 -- -- 71
2019-01-29 18:00:00 8 6 Sudoeste 22 Oeste 0 -- -- 69
2019-01-29 17:00:00 8.1 5 Sudoeste 14 Oeste 0 -- -- 71
2019-01-29 16:00:00 8.4 4 Sudoeste 14 Noroeste 0 -- -- 72
2019-01-29 15:00:00 8.3 2 Oeste 13 Noroeste 0 -- -- 72
2019-01-29 14:00:00 9 4 Sudoeste 19 Oeste 0 -- -- 69
2019-01-29 13:00:00 9.2 2 Sudoeste 18 Sur 0 -- -- 67
2019-01-29 12:00:00 8.4 4 Nordeste 9 Nordeste 0 -- -- 60
2019-01-29 11:00:00 7.8 4 Nordeste 9 Oeste 0 -- -- 61
2019-01-29 10:00:00 6.9 3 Norte 7 Nordeste 0 -- -- 73
2019-01-29 09:00:00 4.5 3 Nordeste 6 Nordeste 0 -- -- 86
2019-01-29 08:00:00 3.7 2 Nordeste 10 Oeste 0 -- -- 85
2019-01-29 07:00:00 2.6 3 Nordeste 7 Nordeste 0 -- -- 92
2019-01-29 06:00:00 1.1 6 Nordeste 8 Este 0 -- -- 92
2019-01-29 05:00:00 -0.1 3 Nordeste 5 Nordeste 0 -- -- 92
2019-01-29 04:00:00 -0.4 3 Nordeste 4 Nordeste 0 -- -- 92
2019-01-29 03:00:00 -0.1 3 Nordeste 5 Nordeste 0 -- -- 91
2019-01-29 02:00:00 0.2 0 Calma 5 Nordeste 0 -- -- 91
2019-01-29 01:00:00 1.1 4 Nordeste 8 Nordeste 0 -- -- 90
2019-01-29 00:00:00 1.5 0 Calma 11 Noroeste 0 -- -- 87
2019-01-28 23:00:00 2.9 4 Oeste 10 Oeste 0 -- -- 84
2019-01-28 22:00:00 3.1 0 Calma 8 Noroeste 0 -- -- 80
2019-01-28 21:00:00 4.9 5 Nordeste 14 Nordeste 0 -- -- 71
2019-01-28 20:00:00 6.5 7 Nordeste 15 Nordeste 0 -- -- 67
2019-01-28 19:00:00 6.8 4 Norte 16 Norte 0 -- -- 72
2019-01-28 18:00:00 8 9 Nordeste 16 Nordeste 0 -- -- 70
2019-01-28 17:00:00 8.9 3 Sudoeste 35 Nordeste 0 -- -- 64
2019-01-28 16:00:00 10.9 18 Nordeste 38 Norte 0 -- -- 51
2019-01-28 15:00:00 13.7 10 Nordeste 33 Nordeste 0 -- -- 41
2019-01-28 14:00:00 10.5 3 Sudoeste 15 Sudoeste 0 -- -- 51
2019-01-28 13:00:00 10.2 2 Sur 19 Sudoeste 0 -- -- 49
2019-01-28 12:00:00 7.9 4 Sur 11 Sudoeste 0 -- -- 59
2019-01-28 11:00:00 6 0 Calma 8 Sur 0 -- -- 79
2019-01-28 10:00:00 4.4 4 Noroeste 9 Noroeste 0 -- -- 84
2019-01-28 09:00:00 -0.1 4 Nordeste 10 Nordeste 0 -- -- 92
2019-01-28 08:00:00 -0.3 0 Calma 7 Nordeste 0 -- -- 92
2019-01-28 07:00:00 -0.4 2 Nordeste 6 Nordeste 0 -- -- 92
2019-01-28 06:00:00 0.4 0 Calma 9 Nordeste 0 -- -- 91
2019-01-28 05:00:00 0.3 5 Nordeste 8 Nordeste 0 -- -- 91
2019-01-28 04:00:00 0.8 5 Nordeste 8 Nordeste 0 -- -- 91
2019-01-28 03:00:00 1.8 0 Calma 8 Noroeste 0 -- -- 91
2019-01-28 02:00:00 1.7 2 Nordeste 9 Noroeste 0 -- -- 92
2019-01-28 01:00:00 2.5 0 Calma 9 Este 0 -- -- 92
2019-01-28 00:00:00 3.8 2 Noroeste 11 Oeste 0 -- -- 92
2019-01-27 23:00:00 4.3 2 Nordeste 7 Este 0 -- -- 92
2019-01-27 22:00:00 5.6 2 Noroeste 7 Nordeste 0 -- -- 91
2019-01-27 21:00:00 6.3 4 Nordeste 7 Nordeste 0 -- -- 91
2019-01-27 20:00:00 6 0 Calma 7 Nordeste 0 -- -- 90
2019-01-27 19:00:00 7.5 0 Calma 6 Noroeste 0 -- -- 87
2019-01-27 18:00:00 9.7 0 Calma 13 Nordeste 0 -- -- 81
2019-01-27 17:00:00 11.8 2 Sur 12 Nordeste 0 -- -- 66
2019-01-27 16:00:00 14.3 5 Nordeste 20 Nordeste 0 -- -- 52
2019-01-27 15:00:00 14.2 4 Nordeste 19 Nordeste 0 -- -- 56
2019-01-27 14:00:00 12.1 3 Norte 18 Nordeste 0 -- -- 57
2019-01-27 13:00:00 11.9 9 Nordeste 17 Sudoeste 0 -- -- 65
2019-01-27 12:00:00 11.8 5 Sudoeste 17 Sudoeste 0 -- -- 61
2019-01-27 11:00:00 11.2 5 Sur 15 Sudoeste 0 -- -- 90
2019-01-27 10:00:00 7.5 2 Nordeste 6 Nordeste 0 -- -- 92
2019-01-27 09:00:00 5.7 0 Calma 6 Nordeste 0 -- -- 92
2019-01-27 08:00:00 4.7 3 Nordeste 6 Nordeste 0 -- -- 92
2019-01-27 07:00:00 4.5 5 Nordeste 8 Nordeste 0 -- -- 92
2019-01-27 06:00:00 4.6 4 Nordeste 9 Oeste 0 -- -- 92
2019-01-27 05:00:00 3.6 0 Calma 10 Nordeste 0 -- -- 92
2019-01-27 04:00:00 3.5 3 Nordeste 8 Nordeste 0 -- -- 92
2019-01-27 03:00:00 3.7 4 Nordeste 8 Nordeste 0 -- -- 92
2019-01-27 02:00:00 3.6 5 Nordeste 8 Nordeste 0 -- -- 92
2019-01-27 01:00:00 3.4 0 Calma 5 Norte 0 -- -- 92
2019-01-27 00:00:00 3.5 0 Calma 6 Nordeste 0 -- -- 92
2019-01-26 23:00:00 4.1 3 Nordeste 6 Nordeste 0 -- -- 92
2019-01-26 22:00:00 4.5 3 Nordeste 5 Este 0 -- -- 92
2019-01-26 21:00:00 5 0 Calma 5 Nordeste 0 -- -- 91
2019-01-26 20:00:00 6.5 0 Calma 7 Oeste 0 -- -- 91
2019-01-26 19:00:00 8.1 0 Calma 18 Sudoeste 0 -- -- 88
2019-01-26 18:00:00 11.2 7 Sudoeste 23 Sudoeste 0 -- -- 80
2019-01-26 17:00:00 11.8 7 Sudoeste 35 Sur 0 -- -- 71
2019-01-26 16:00:00 12.8 18 Sur 33 Sudoeste 0 -- -- 67
2019-01-26 15:00:00 13 11 Sudoeste 24 Sudoeste 0 -- -- 61
2019-01-26 14:00:00 13 10 Sudoeste 24 Sudoeste 0 -- -- 61
2019-01-26 13:00:00 13.4 10 Sudoeste 23 Sudoeste 0 -- -- 60
2019-01-26 12:00:00 12.2 6 Sur 13 Este 0 -- -- 65
2019-01-26 11:00:00 9.3 0 Calma 6 Nordeste 0 -- -- 71
2019-01-26 10:00:00 5.3 3 Nordeste 9 Nordeste 0 -- -- 86
2019-01-26 09:00:00 2.6 0 Calma 6 Nordeste 0 -- -- 90
2019-01-26 08:00:00 2.3 3 Nordeste 8 Nordeste 0 -- -- 89
2019-01-26 07:00:00 2.4 4 Nordeste 8 Nordeste 0 -- -- 86
2019-01-26 06:00:00 2 4 Nordeste 9 Nordeste 0 -- -- 87
2019-01-26 05:00:00 1.9 6 Nordeste 11 Nordeste 0 -- -- 90
2019-01-26 04:00:00 1.7 2 Nordeste 7 Nordeste 0 -- -- 92
2019-01-26 03:00:00 1.8 0 Calma 4 Nordeste 0 -- -- 92
2019-01-26 02:00:00 2.3 0 Calma 6 Nordeste 0 -- -- 91
2019-01-26 01:00:00 1.9 2 Nordeste 7 Nordeste 0 -- -- 91
2019-01-26 00:00:00 1.7 3 Nordeste 7 Nordeste 0 -- -- 91
2019-01-25 23:00:00 2.2 0 Calma 5 Nordeste 0 -- -- 91
2019-01-25 22:00:00 2.6 0 Calma 9 Nordeste 0 -- -- 89
2019-01-25 21:00:00 2.8 2 Nordeste 6 Nordeste 0 -- -- 89
2019-01-25 20:00:00 3.6 3 Nordeste 9 Nordeste 0 -- -- 87
2019-01-25 19:00:00 4.5 0 Calma 4 Noroeste 0 -- -- 84
2019-01-25 18:00:00 6.2 0 Calma 5 Sudoeste 0 -- -- 79
2019-01-25 17:00:00 8.5 3 Sudoeste 14 Sudoeste 0 -- -- 62
2019-01-25 16:00:00 12.2 8 Sudoeste 18 Sudoeste 0 -- -- 46
2019-01-25 15:00:00 12.5 9 Sudoeste 22 Sudoeste 0 -- -- 39
2019-01-25 14:00:00 12.5 10 Sudoeste 26 Sur 0 -- -- 35
2019-01-25 13:00:00 12.4 9 Sudoeste 23 Sur 0 -- -- 34
2019-01-25 12:00:00 11.1 6 Sudoeste 18 Sur 0 -- -- 40
2019-01-25 11:00:00 8.1 0 Calma 10 Sudoeste 0 -- -- 50
2019-01-25 10:00:00 1.4 2 Nordeste 9 Norte 0 -- -- 69
2019-01-25 09:00:00 -1.1 4 Nordeste 8 Nordeste 0 -- -- 70
2019-01-25 08:00:00 -0.8 0 Calma 14 Noroeste 0 -- -- 67
2019-01-25 07:00:00 -0.7 2 Este 12 Nordeste 0 -- -- 67
2019-01-25 06:00:00 -1.7 4 Nordeste 8 Nordeste 0 -- -- 74
2019-01-25 05:00:00 -2.2 4 Nordeste 8 Nordeste 0 -- -- 72
2019-01-25 04:00:00 -1.8 2 Nordeste 11 Nordeste 0 -- -- 69
2019-01-25 03:00:00 -2.3 5 Nordeste 8 Nordeste 0 -- -- 72
2019-01-25 02:00:00 -2.5 3 Nordeste 5 Nordeste 0 -- -- 74
2019-01-25 01:00:00 -2.2 0 Calma 7 Este 0 -- -- 71
2019-01-25 00:00:00 -1.6 0 Calma 5 Este 0 -- -- 70
2019-01-24 23:00:00 -0.7 0 Calma 9 Noroeste 0 -- -- 64
2019-01-24 22:00:00 -0.2 4 Nordeste 9 Nordeste 0 -- -- 64
2019-01-24 21:00:00 0.2 2 Nordeste 6 Este 0 -- -- 60
2019-01-24 20:00:00 2.2 2 Norte 8 Noroeste 0 -- -- 50
2019-01-24 19:00:00 2.6 4 Nordeste 8 Nordeste 0 -- -- 49
2019-01-24 18:00:00 5.7 0 Calma 19 Nordeste 0 -- -- 34
2019-01-24 17:00:00 12 8 Nordeste 21 Nordeste 0 -- -- 21
2019-01-24 16:00:00 13.4 6 Nordeste 24 Nordeste 0 -- -- 24
2019-01-24 15:00:00 13 5 Sudoeste 19 Sudoeste 0 -- -- 31
2019-01-24 14:00:00 12.3 7 Sudoeste 21 Sudoeste 0 -- -- 31
2019-01-24 13:00:00 10.4 6 Sudoeste 14 Sudoeste 0 -- -- 37
2019-01-24 12:00:00 7.5 8 Sudoeste 13 Sudoeste 0 -- -- 46
2019-01-24 11:00:00 4.5 2 Sur 8 Este 0 -- -- 51
2019-01-24 10:00:00 3.1 0 Calma 14 Este 0 -- -- 50
2019-01-24 09:00:00 3.3 8 Nordeste 15 Nordeste 0 -- -- 46
2019-01-24 08:00:00 0.7 6 Nordeste 13 Nordeste 0 -- -- 60
2019-01-24 07:00:00 2.1 4 Nordeste 17 Nordeste 0 -- -- 50
2019-01-24 06:00:00 4 8 Nordeste 29 Norte 0 -- -- 45
2019-01-24 05:00:00 4.1 8 Norte 27 Nordeste 0 -- -- 41
2019-01-24 04:00:00 5.2 8 Nordeste 24 Noroeste 0 -- -- 40
2019-01-24 03:00:00 5.4 4 Noroeste 26 Noroeste 0 -- -- 40
2019-01-24 02:00:00 4.4 13 Nordeste 27 Nordeste 0 -- -- 54
2019-01-24 01:00:00 2.6 6 Nordeste 18 Nordeste 0 -- -- 64
2019-01-24 00:00:00 3.3 9 Nordeste 28 Nordeste 0 -- -- 61